<?xml version="1.0" encoding="UTF-8" standalone="no" ?>
<gpx xmlns="http://www.topografix.com/GPX/1/1" xmlns:xsi="http://www.w3.org/2001/XMLSchema-instance" xsi:schemaLocation="http://www.topografix.com/GPX/1/1 http://www.topografix.com/GPX/1/1/gpx.xsd" version="1.1" creator="VisuGPX - https://www.visugpx.com">
  <metadata>
    <name>Merlevenez moulin Rhodes 9kms</name>
  </metadata>
  <trk>
    <name><![CDATA[2016-09-29 15:59:45]]></name>
    <trkseg>
      <trkpt lat="47.73804" lon="-3.22622">
        <ele>-83.02</ele>
        <time>2016-09-29T11:54:04Z</time>
      </trkpt>
      <trkpt lat="47.738" lon="-3.22624">
        <ele>-76.77</ele>
        <time>2016-09-29T11:54:07Z</time>
      </trkpt>
      <trkpt lat="47.73798" lon="-3.22626">
        <ele>-71.48</ele>
        <time>2016-09-29T11:54:09Z</time>
      </trkpt>
      <trkpt lat="47.73796" lon="-3.22627">
        <ele>-63.79</ele>
        <time>2016-09-29T11:54:11Z</time>
      </trkpt>
      <trkpt lat="47.73795" lon="-3.22627">
        <ele>-63.79</ele>
        <time>2016-09-29T11:54:12Z</time>
      </trkpt>
      <trkpt lat="47.73794" lon="-3.22628">
        <ele>-59.46</ele>
        <time>2016-09-29T11:54:14Z</time>
      </trkpt>
      <trkpt lat="47.73793" lon="-3.22629">
        <ele>-54.66</ele>
        <time>2016-09-29T11:54:16Z</time>
      </trkpt>
      <trkpt lat="47.73792" lon="-3.22629">
        <ele>-50.81</ele>
        <time>2016-09-29T11:54:18Z</time>
      </trkpt>
      <trkpt lat="47.73792" lon="-3.22629">
        <ele>-46.97</ele>
        <time>2016-09-29T11:54:20Z</time>
      </trkpt>
      <trkpt lat="47.73791" lon="-3.2263">
        <ele>-43.6</ele>
        <time>2016-09-29T11:54:22Z</time>
      </trkpt>
      <trkpt lat="47.7379" lon="-3.2263">
        <ele>-40.24</ele>
        <time>2016-09-29T11:54:24Z</time>
      </trkpt>
      <trkpt lat="47.73787" lon="-3.22628">
        <ele>-34.47</ele>
        <time>2016-09-29T11:54:28Z</time>
      </trkpt>
      <trkpt lat="47.73785" lon="-3.22627">
        <ele>-30.62</ele>
        <time>2016-09-29T11:54:31Z</time>
      </trkpt>
      <trkpt lat="47.73784" lon="-3.22627">
        <ele>-29.66</ele>
        <time>2016-09-29T11:54:32Z</time>
      </trkpt>
      <trkpt lat="47.73781" lon="-3.22622">
        <ele>-24.86</ele>
        <time>2016-09-29T11:54:36Z</time>
      </trkpt>
      <trkpt lat="47.73779" lon="-3.22619">
        <ele>-21.01</ele>
        <time>2016-09-29T11:54:39Z</time>
      </trkpt>
      <trkpt lat="47.73779" lon="-3.22619">
        <ele>-21.01</ele>
        <time>2016-09-29T11:54:40Z</time>
      </trkpt>
      <trkpt lat="47.73776" lon="-3.22616">
        <ele>-18.13</ele>
        <time>2016-09-29T11:54:44Z</time>
      </trkpt>
      <trkpt lat="47.73775" lon="-3.22612">
        <ele>-14.76</ele>
        <time>2016-09-29T11:54:48Z</time>
      </trkpt>
      <trkpt lat="47.73777" lon="-3.22603">
        <ele>-11.4</ele>
        <time>2016-09-29T11:54:54Z</time>
      </trkpt>
      <trkpt lat="47.73781" lon="-3.22595">
        <ele>-8.03</ele>
        <time>2016-09-29T11:55:00Z</time>
      </trkpt>
      <trkpt lat="47.73787" lon="-3.22587">
        <ele>-4.67</ele>
        <time>2016-09-29T11:55:08Z</time>
      </trkpt>
      <trkpt lat="47.73794" lon="-3.22574">
        <ele>-1.79</ele>
        <time>2016-09-29T11:55:18Z</time>
      </trkpt>
      <trkpt lat="47.73803" lon="-3.22561">
        <ele>1.58</ele>
        <time>2016-09-29T11:55:31Z</time>
      </trkpt>
      <trkpt lat="47.73821" lon="-3.22548">
        <ele>2.06</ele>
        <time>2016-09-29T11:55:48Z</time>
      </trkpt>
      <trkpt lat="47.73852" lon="-3.22547">
        <ele>3.98</ele>
        <time>2016-09-29T11:56:14Z</time>
      </trkpt>
      <trkpt lat="47.73857" lon="-3.22564">
        <ele>3.98</ele>
        <time>2016-09-29T11:56:26Z</time>
      </trkpt>
      <trkpt lat="47.73876" lon="-3.22573">
        <ele>4.94</ele>
        <time>2016-09-29T11:56:46Z</time>
      </trkpt>
      <trkpt lat="47.73883" lon="-3.22569">
        <ele>4.94</ele>
        <time>2016-09-29T11:56:53Z</time>
      </trkpt>
      <trkpt lat="47.7391" lon="-3.2256">
        <ele>4.94</ele>
        <time>2016-09-29T11:57:13Z</time>
      </trkpt>
      <trkpt lat="47.73925" lon="-3.22527">
        <ele>4.94</ele>
        <time>2016-09-29T11:57:34Z</time>
      </trkpt>
      <trkpt lat="47.73939" lon="-3.22503">
        <ele>4.94</ele>
        <time>2016-09-29T11:57:55Z</time>
      </trkpt>
      <trkpt lat="47.73942" lon="-3.22473">
        <ele>3.5</ele>
        <time>2016-09-29T11:58:16Z</time>
      </trkpt>
      <trkpt lat="47.73956" lon="-3.22432">
        <ele>3.98</ele>
        <time>2016-09-29T11:58:41Z</time>
      </trkpt>
      <trkpt lat="47.73972" lon="-3.22385">
        <ele>3.98</ele>
        <time>2016-09-29T11:59:07Z</time>
      </trkpt>
      <trkpt lat="47.73982" lon="-3.22361">
        <ele>3.5</ele>
        <time>2016-09-29T11:59:25Z</time>
      </trkpt>
      <trkpt lat="47.73992" lon="-3.22322">
        <ele>3.5</ele>
        <time>2016-09-29T11:59:48Z</time>
      </trkpt>
      <trkpt lat="47.73999" lon="-3.22301">
        <ele>3.02</ele>
        <time>2016-09-29T12:00:08Z</time>
      </trkpt>
      <trkpt lat="47.74006" lon="-3.22265">
        <ele>3.98</ele>
        <time>2016-09-29T12:00:29Z</time>
      </trkpt>
      <trkpt lat="47.74015" lon="-3.22245">
        <ele>4.46</ele>
        <time>2016-09-29T12:00:50Z</time>
      </trkpt>
      <trkpt lat="47.74017" lon="-3.22245">
        <ele>4.46</ele>
        <time>2016-09-29T12:01:17Z</time>
      </trkpt>
      <trkpt lat="47.74021" lon="-3.22242">
        <ele>4.94</ele>
        <time>2016-09-29T12:01:39Z</time>
      </trkpt>
      <trkpt lat="47.74037" lon="-3.22241">
        <ele>4.94</ele>
        <time>2016-09-29T12:01:56Z</time>
      </trkpt>
      <trkpt lat="47.74058" lon="-3.22245">
        <ele>5.91</ele>
        <time>2016-09-29T12:02:16Z</time>
      </trkpt>
      <trkpt lat="47.74077" lon="-3.22238">
        <ele>6.39</ele>
        <time>2016-09-29T12:02:35Z</time>
      </trkpt>
      <trkpt lat="47.74111" lon="-3.22227">
        <ele>6.39</ele>
        <time>2016-09-29T12:02:59Z</time>
      </trkpt>
      <trkpt lat="47.74131" lon="-3.22219">
        <ele>6.39</ele>
        <time>2016-09-29T12:03:20Z</time>
      </trkpt>
      <trkpt lat="47.7416" lon="-3.22209">
        <ele>5.91</ele>
        <time>2016-09-29T12:03:43Z</time>
      </trkpt>
      <trkpt lat="47.74186" lon="-3.22201">
        <ele>5.91</ele>
        <time>2016-09-29T12:04:03Z</time>
      </trkpt>
      <trkpt lat="47.74214" lon="-3.22196">
        <ele>5.91</ele>
        <time>2016-09-29T12:04:25Z</time>
      </trkpt>
      <trkpt lat="47.7424" lon="-3.22185">
        <ele>5.91</ele>
        <time>2016-09-29T12:04:47Z</time>
      </trkpt>
      <trkpt lat="47.74266" lon="-3.22177">
        <ele>5.42</ele>
        <time>2016-09-29T12:05:08Z</time>
      </trkpt>
      <trkpt lat="47.74296" lon="-3.22167">
        <ele>5.42</ele>
        <time>2016-09-29T12:05:33Z</time>
      </trkpt>
      <trkpt lat="47.74327" lon="-3.22156">
        <ele>5.42</ele>
        <time>2016-09-29T12:05:58Z</time>
      </trkpt>
      <trkpt lat="47.74354" lon="-3.22149">
        <ele>5.42</ele>
        <time>2016-09-29T12:06:20Z</time>
      </trkpt>
      <trkpt lat="47.74375" lon="-3.22141">
        <ele>3.98</ele>
        <time>2016-09-29T12:06:36Z</time>
      </trkpt>
      <trkpt lat="47.74398" lon="-3.22119">
        <ele>3.98</ele>
        <time>2016-09-29T12:06:55Z</time>
      </trkpt>
      <trkpt lat="47.74397" lon="-3.22085">
        <ele>3.98</ele>
        <time>2016-09-29T12:07:13Z</time>
      </trkpt>
      <trkpt lat="47.74394" lon="-3.22047">
        <ele>3.98</ele>
        <time>2016-09-29T12:07:34Z</time>
      </trkpt>
      <trkpt lat="47.74392" lon="-3.22014">
        <ele>3.98</ele>
        <time>2016-09-29T12:07:52Z</time>
      </trkpt>
      <trkpt lat="47.74389" lon="-3.21982">
        <ele>3.98</ele>
        <time>2016-09-29T12:08:11Z</time>
      </trkpt>
      <trkpt lat="47.74385" lon="-3.21944">
        <ele>3.98</ele>
        <time>2016-09-29T12:08:34Z</time>
      </trkpt>
      <trkpt lat="47.74382" lon="-3.21909">
        <ele>3.98</ele>
        <time>2016-09-29T12:08:54Z</time>
      </trkpt>
      <trkpt lat="47.7438" lon="-3.21891">
        <ele>4.94</ele>
        <time>2016-09-29T12:09:02Z</time>
      </trkpt>
      <trkpt lat="47.7439" lon="-3.21843">
        <ele>5.91</ele>
        <time>2016-09-29T12:09:27Z</time>
      </trkpt>
      <trkpt lat="47.74396" lon="-3.21813">
        <ele>7.35</ele>
        <time>2016-09-29T12:09:45Z</time>
      </trkpt>
      <trkpt lat="47.74404" lon="-3.21776">
        <ele>9.27</ele>
        <time>2016-09-29T12:10:07Z</time>
      </trkpt>
      <trkpt lat="47.74408" lon="-3.21743">
        <ele>11.19</ele>
        <time>2016-09-29T12:10:27Z</time>
      </trkpt>
      <trkpt lat="47.74421" lon="-3.21723">
        <ele>12.63</ele>
        <time>2016-09-29T12:10:46Z</time>
      </trkpt>
      <trkpt lat="47.74442" lon="-3.21708">
        <ele>13.12</ele>
        <time>2016-09-29T12:11:06Z</time>
      </trkpt>
      <trkpt lat="47.74443" lon="-3.21702">
        <ele>13.12</ele>
        <time>2016-09-29T12:11:09Z</time>
      </trkpt>
      <trkpt lat="47.74446" lon="-3.21675">
        <ele>13.6</ele>
        <time>2016-09-29T12:11:24Z</time>
      </trkpt>
      <trkpt lat="47.74448" lon="-3.21647">
        <ele>14.08</ele>
        <time>2016-09-29T12:11:40Z</time>
      </trkpt>
      <trkpt lat="47.74463" lon="-3.21632">
        <ele>14.56</ele>
        <time>2016-09-29T12:11:57Z</time>
      </trkpt>
      <trkpt lat="47.74474" lon="-3.21627">
        <ele>14.56</ele>
        <time>2016-09-29T12:12:06Z</time>
      </trkpt>
      <trkpt lat="47.74494" lon="-3.21625">
        <ele>14.56</ele>
        <time>2016-09-29T12:12:22Z</time>
      </trkpt>
      <trkpt lat="47.74516" lon="-3.21625">
        <ele>14.56</ele>
        <time>2016-09-29T12:12:39Z</time>
      </trkpt>
      <trkpt lat="47.74538" lon="-3.21622">
        <ele>14.56</ele>
        <time>2016-09-29T12:12:57Z</time>
      </trkpt>
      <trkpt lat="47.74557" lon="-3.21609">
        <ele>14.56</ele>
        <time>2016-09-29T12:13:15Z</time>
      </trkpt>
      <trkpt lat="47.74558" lon="-3.21607">
        <ele>14.56</ele>
        <time>2016-09-29T12:13:16Z</time>
      </trkpt>
      <trkpt lat="47.74553" lon="-3.21566">
        <ele>15.04</ele>
        <time>2016-09-29T12:13:37Z</time>
      </trkpt>
      <trkpt lat="47.74548" lon="-3.21537">
        <ele>15.04</ele>
        <time>2016-09-29T12:13:53Z</time>
      </trkpt>
      <trkpt lat="47.74543" lon="-3.21508">
        <ele>15.52</ele>
        <time>2016-09-29T12:14:09Z</time>
      </trkpt>
      <trkpt lat="47.74537" lon="-3.21484">
        <ele>15.52</ele>
        <time>2016-09-29T12:14:24Z</time>
      </trkpt>
      <trkpt lat="47.74538" lon="-3.21478">
        <ele>15.52</ele>
        <time>2016-09-29T12:14:27Z</time>
      </trkpt>
      <trkpt lat="47.74541" lon="-3.21472">
        <ele>15.52</ele>
        <time>2016-09-29T12:14:31Z</time>
      </trkpt>
      <trkpt lat="47.74563" lon="-3.21464">
        <ele>15.52</ele>
        <time>2016-09-29T12:14:49Z</time>
      </trkpt>
      <trkpt lat="47.74585" lon="-3.21458">
        <ele>16</ele>
        <time>2016-09-29T12:15:07Z</time>
      </trkpt>
      <trkpt lat="47.74606" lon="-3.21453">
        <ele>16</ele>
        <time>2016-09-29T12:15:24Z</time>
      </trkpt>
      <trkpt lat="47.74631" lon="-3.21447">
        <ele>16</ele>
        <time>2016-09-29T12:15:42Z</time>
      </trkpt>
      <trkpt lat="47.74645" lon="-3.21429">
        <ele>14.56</ele>
        <time>2016-09-29T12:15:58Z</time>
      </trkpt>
      <trkpt lat="47.74645" lon="-3.21397">
        <ele>14.08</ele>
        <time>2016-09-29T12:16:15Z</time>
      </trkpt>
      <trkpt lat="47.74644" lon="-3.2139">
        <ele>14.08</ele>
        <time>2016-09-29T12:16:19Z</time>
      </trkpt>
      <trkpt lat="47.74639" lon="-3.21362">
        <ele>13.6</ele>
        <time>2016-09-29T12:16:36Z</time>
      </trkpt>
      <trkpt lat="47.74637" lon="-3.21353">
        <ele>14.56</ele>
        <time>2016-09-29T12:16:41Z</time>
      </trkpt>
      <trkpt lat="47.7463" lon="-3.21325">
        <ele>14.56</ele>
        <time>2016-09-29T12:16:56Z</time>
      </trkpt>
      <trkpt lat="47.74624" lon="-3.21297">
        <ele>14.56</ele>
        <time>2016-09-29T12:17:12Z</time>
      </trkpt>
      <trkpt lat="47.74619" lon="-3.21264">
        <ele>14.56</ele>
        <time>2016-09-29T12:17:29Z</time>
      </trkpt>
      <trkpt lat="47.74615" lon="-3.21241">
        <ele>15.04</ele>
        <time>2016-09-29T12:17:41Z</time>
      </trkpt>
      <trkpt lat="47.74611" lon="-3.21219">
        <ele>15.04</ele>
        <time>2016-09-29T12:17:53Z</time>
      </trkpt>
      <trkpt lat="47.74606" lon="-3.2119">
        <ele>13.6</ele>
        <time>2016-09-29T12:18:09Z</time>
      </trkpt>
      <trkpt lat="47.74607" lon="-3.21162">
        <ele>13.6</ele>
        <time>2016-09-29T12:18:24Z</time>
      </trkpt>
      <trkpt lat="47.74608" lon="-3.21157">
        <ele>13.6</ele>
        <time>2016-09-29T12:18:27Z</time>
      </trkpt>
      <trkpt lat="47.7461" lon="-3.21128">
        <ele>14.08</ele>
        <time>2016-09-29T12:18:43Z</time>
      </trkpt>
      <trkpt lat="47.74614" lon="-3.21103">
        <ele>14.08</ele>
        <time>2016-09-29T12:18:57Z</time>
      </trkpt>
      <trkpt lat="47.74621" lon="-3.21079">
        <ele>14.08</ele>
        <time>2016-09-29T12:19:12Z</time>
      </trkpt>
      <trkpt lat="47.74633" lon="-3.21056">
        <ele>14.08</ele>
        <time>2016-09-29T12:19:27Z</time>
      </trkpt>
      <trkpt lat="47.74649" lon="-3.21028">
        <ele>16</ele>
        <time>2016-09-29T12:19:46Z</time>
      </trkpt>
      <trkpt lat="47.74659" lon="-3.21009">
        <ele>16</ele>
        <time>2016-09-29T12:20:00Z</time>
      </trkpt>
      <trkpt lat="47.7466" lon="-3.21002">
        <ele>16</ele>
        <time>2016-09-29T12:20:04Z</time>
      </trkpt>
      <trkpt lat="47.74668" lon="-3.20993">
        <ele>16</ele>
        <time>2016-09-29T12:20:11Z</time>
      </trkpt>
      <trkpt lat="47.74672" lon="-3.20985">
        <ele>16</ele>
        <time>2016-09-29T12:20:16Z</time>
      </trkpt>
      <trkpt lat="47.74681" lon="-3.20967">
        <ele>14.56</ele>
        <time>2016-09-29T12:20:28Z</time>
      </trkpt>
      <trkpt lat="47.74686" lon="-3.20959">
        <ele>14.56</ele>
        <time>2016-09-29T12:20:34Z</time>
      </trkpt>
      <trkpt lat="47.74688" lon="-3.20955">
        <ele>14.56</ele>
        <time>2016-09-29T12:20:37Z</time>
      </trkpt>
      <trkpt lat="47.74693" lon="-3.20932">
        <ele>14.56</ele>
        <time>2016-09-29T12:20:50Z</time>
      </trkpt>
      <trkpt lat="47.74701" lon="-3.20912">
        <ele>13.6</ele>
        <time>2016-09-29T12:21:02Z</time>
      </trkpt>
      <trkpt lat="47.74704" lon="-3.20907">
        <ele>13.6</ele>
        <time>2016-09-29T12:21:05Z</time>
      </trkpt>
      <trkpt lat="47.74709" lon="-3.20875">
        <ele>12.63</ele>
        <time>2016-09-29T12:21:21Z</time>
      </trkpt>
      <trkpt lat="47.7471" lon="-3.20865">
        <ele>12.63</ele>
        <time>2016-09-29T12:21:27Z</time>
      </trkpt>
      <trkpt lat="47.7471" lon="-3.20839">
        <ele>12.15</ele>
        <time>2016-09-29T12:21:40Z</time>
      </trkpt>
      <trkpt lat="47.74712" lon="-3.20807">
        <ele>11.19</ele>
        <time>2016-09-29T12:21:56Z</time>
      </trkpt>
      <trkpt lat="47.74712" lon="-3.2078">
        <ele>10.23</ele>
        <time>2016-09-29T12:22:11Z</time>
      </trkpt>
      <trkpt lat="47.74712" lon="-3.20776">
        <ele>10.23</ele>
        <time>2016-09-29T12:22:14Z</time>
      </trkpt>
      <trkpt lat="47.74712" lon="-3.20771">
        <ele>10.23</ele>
        <time>2016-09-29T12:22:17Z</time>
      </trkpt>
      <trkpt lat="47.74711" lon="-3.20764">
        <ele>10.23</ele>
        <time>2016-09-29T12:22:21Z</time>
      </trkpt>
      <trkpt lat="47.7471" lon="-3.20739">
        <ele>9.75</ele>
        <time>2016-09-29T12:22:36Z</time>
      </trkpt>
      <trkpt lat="47.74712" lon="-3.20708">
        <ele>9.27</ele>
        <time>2016-09-29T12:22:51Z</time>
      </trkpt>
      <trkpt lat="47.74713" lon="-3.20676">
        <ele>8.31</ele>
        <time>2016-09-29T12:23:06Z</time>
      </trkpt>
      <trkpt lat="47.74713" lon="-3.20654">
        <ele>7.35</ele>
        <time>2016-09-29T12:23:17Z</time>
      </trkpt>
      <trkpt lat="47.74709" lon="-3.20623">
        <ele>6.39</ele>
        <time>2016-09-29T12:23:34Z</time>
      </trkpt>
      <trkpt lat="47.74704" lon="-3.20591">
        <ele>5.91</ele>
        <time>2016-09-29T12:23:51Z</time>
      </trkpt>
      <trkpt lat="47.747" lon="-3.20564">
        <ele>5.42</ele>
        <time>2016-09-29T12:24:05Z</time>
      </trkpt>
      <trkpt lat="47.74695" lon="-3.20531">
        <ele>4.46</ele>
        <time>2016-09-29T12:24:22Z</time>
      </trkpt>
      <trkpt lat="47.74688" lon="-3.20495">
        <ele>3.98</ele>
        <time>2016-09-29T12:24:41Z</time>
      </trkpt>
      <trkpt lat="47.74683" lon="-3.2046">
        <ele>3.5</ele>
        <time>2016-09-29T12:24:59Z</time>
      </trkpt>
      <trkpt lat="47.74678" lon="-3.20425">
        <ele>3.02</ele>
        <time>2016-09-29T12:25:18Z</time>
      </trkpt>
      <trkpt lat="47.74673" lon="-3.20395">
        <ele>2.54</ele>
        <time>2016-09-29T12:25:35Z</time>
      </trkpt>
      <trkpt lat="47.74668" lon="-3.20364">
        <ele>2.06</ele>
        <time>2016-09-29T12:25:51Z</time>
      </trkpt>
      <trkpt lat="47.74662" lon="-3.20332">
        <ele>2.06</ele>
        <time>2016-09-29T12:26:09Z</time>
      </trkpt>
      <trkpt lat="47.74656" lon="-3.20303">
        <ele>2.06</ele>
        <time>2016-09-29T12:26:24Z</time>
      </trkpt>
      <trkpt lat="47.74652" lon="-3.20277">
        <ele>2.54</ele>
        <time>2016-09-29T12:26:38Z</time>
      </trkpt>
      <trkpt lat="47.74649" lon="-3.20244">
        <ele>2.54</ele>
        <time>2016-09-29T12:26:55Z</time>
      </trkpt>
      <trkpt lat="47.74645" lon="-3.20216">
        <ele>2.54</ele>
        <time>2016-09-29T12:27:11Z</time>
      </trkpt>
      <trkpt lat="47.7464" lon="-3.20187">
        <ele>2.54</ele>
        <time>2016-09-29T12:27:26Z</time>
      </trkpt>
      <trkpt lat="47.74636" lon="-3.20157">
        <ele>2.54</ele>
        <time>2016-09-29T12:27:42Z</time>
      </trkpt>
      <trkpt lat="47.7463" lon="-3.20128">
        <ele>2.54</ele>
        <time>2016-09-29T12:27:59Z</time>
      </trkpt>
      <trkpt lat="47.74625" lon="-3.20105">
        <ele>2.54</ele>
        <time>2016-09-29T12:28:14Z</time>
      </trkpt>
      <trkpt lat="47.74625" lon="-3.20102">
        <ele>2.54</ele>
        <time>2016-09-29T12:28:16Z</time>
      </trkpt>
      <trkpt lat="47.74623" lon="-3.20095">
        <ele>3.02</ele>
        <time>2016-09-29T12:28:21Z</time>
      </trkpt>
      <trkpt lat="47.74623" lon="-3.20078">
        <ele>3.02</ele>
        <time>2016-09-29T12:28:35Z</time>
      </trkpt>
      <trkpt lat="47.7462" lon="-3.20058">
        <ele>2.54</ele>
        <time>2016-09-29T12:28:48Z</time>
      </trkpt>
      <trkpt lat="47.74617" lon="-3.20039">
        <ele>2.06</ele>
        <time>2016-09-29T12:29:02Z</time>
      </trkpt>
      <trkpt lat="47.74616" lon="-3.20035">
        <ele>2.06</ele>
        <time>2016-09-29T12:29:19Z</time>
      </trkpt>
      <trkpt lat="47.74619" lon="-3.20039">
        <ele>2.06</ele>
        <time>2016-09-29T12:29:41Z</time>
      </trkpt>
      <trkpt lat="47.74618" lon="-3.20036">
        <ele>2.06</ele>
        <time>2016-09-29T12:29:54Z</time>
      </trkpt>
      <trkpt lat="47.74618" lon="-3.20035">
        <ele>2.06</ele>
        <time>2016-09-29T12:30:18Z</time>
      </trkpt>
      <trkpt lat="47.74617" lon="-3.20032">
        <ele>2.06</ele>
        <time>2016-09-29T12:30:35Z</time>
      </trkpt>
      <trkpt lat="47.74617" lon="-3.20032">
        <ele>2.06</ele>
        <time>2016-09-29T12:31:00Z</time>
      </trkpt>
      <trkpt lat="47.74616" lon="-3.20031">
        <ele>2.06</ele>
        <time>2016-09-29T12:31:08Z</time>
      </trkpt>
      <trkpt lat="47.74611" lon="-3.20026">
        <ele>2.06</ele>
        <time>2016-09-29T12:31:14Z</time>
      </trkpt>
      <trkpt lat="47.74608" lon="-3.20022">
        <ele>2.06</ele>
        <time>2016-09-29T12:31:30Z</time>
      </trkpt>
      <trkpt lat="47.74608" lon="-3.20018">
        <ele>2.06</ele>
        <time>2016-09-29T12:31:43Z</time>
      </trkpt>
      <trkpt lat="47.74612" lon="-3.19995">
        <ele>2.06</ele>
        <time>2016-09-29T12:31:58Z</time>
      </trkpt>
      <trkpt lat="47.74613" lon="-3.19973">
        <ele>2.06</ele>
        <time>2016-09-29T12:32:14Z</time>
      </trkpt>
      <trkpt lat="47.74612" lon="-3.19952">
        <ele>3.5</ele>
        <time>2016-09-29T12:32:27Z</time>
      </trkpt>
      <trkpt lat="47.74612" lon="-3.1993">
        <ele>3.5</ele>
        <time>2016-09-29T12:32:41Z</time>
      </trkpt>
      <trkpt lat="47.7461" lon="-3.19909">
        <ele>3.5</ele>
        <time>2016-09-29T12:32:54Z</time>
      </trkpt>
      <trkpt lat="47.74609" lon="-3.19904">
        <ele>3.5</ele>
        <time>2016-09-29T12:32:57Z</time>
      </trkpt>
      <trkpt lat="47.74609" lon="-3.19901">
        <ele>3.5</ele>
        <time>2016-09-29T12:32:59Z</time>
      </trkpt>
      <trkpt lat="47.74608" lon="-3.19892">
        <ele>3.5</ele>
        <time>2016-09-29T12:33:04Z</time>
      </trkpt>
      <trkpt lat="47.74608" lon="-3.19885">
        <ele>3.5</ele>
        <time>2016-09-29T12:33:08Z</time>
      </trkpt>
      <trkpt lat="47.74606" lon="-3.1986">
        <ele>3.5</ele>
        <time>2016-09-29T12:33:23Z</time>
      </trkpt>
      <trkpt lat="47.74606" lon="-3.19857">
        <ele>3.5</ele>
        <time>2016-09-29T12:33:25Z</time>
      </trkpt>
      <trkpt lat="47.74604" lon="-3.19833">
        <ele>3.98</ele>
        <time>2016-09-29T12:33:39Z</time>
      </trkpt>
      <trkpt lat="47.74604" lon="-3.19829">
        <ele>3.98</ele>
        <time>2016-09-29T12:33:41Z</time>
      </trkpt>
      <trkpt lat="47.74605" lon="-3.19817">
        <ele>4.46</ele>
        <time>2016-09-29T12:33:48Z</time>
      </trkpt>
      <trkpt lat="47.74604" lon="-3.19813">
        <ele>4.46</ele>
        <time>2016-09-29T12:33:50Z</time>
      </trkpt>
      <trkpt lat="47.74605" lon="-3.19784">
        <ele>5.42</ele>
        <time>2016-09-29T12:34:07Z</time>
      </trkpt>
      <trkpt lat="47.74608" lon="-3.19762">
        <ele>5.42</ele>
        <time>2016-09-29T12:34:21Z</time>
      </trkpt>
      <trkpt lat="47.74611" lon="-3.19736">
        <ele>6.39</ele>
        <time>2016-09-29T12:34:36Z</time>
      </trkpt>
      <trkpt lat="47.74612" lon="-3.19732">
        <ele>6.87</ele>
        <time>2016-09-29T12:34:39Z</time>
      </trkpt>
      <trkpt lat="47.74616" lon="-3.19721">
        <ele>7.35</ele>
        <time>2016-09-29T12:34:45Z</time>
      </trkpt>
      <trkpt lat="47.74627" lon="-3.19702">
        <ele>7.35</ele>
        <time>2016-09-29T12:35:01Z</time>
      </trkpt>
      <trkpt lat="47.74642" lon="-3.19685">
        <ele>8.31</ele>
        <time>2016-09-29T12:35:17Z</time>
      </trkpt>
      <trkpt lat="47.74657" lon="-3.19671">
        <ele>9.27</ele>
        <time>2016-09-29T12:35:34Z</time>
      </trkpt>
      <trkpt lat="47.74669" lon="-3.19653">
        <ele>9.27</ele>
        <time>2016-09-29T12:35:50Z</time>
      </trkpt>
      <trkpt lat="47.74687" lon="-3.19633">
        <ele>9.75</ele>
        <time>2016-09-29T12:36:07Z</time>
      </trkpt>
      <trkpt lat="47.74703" lon="-3.19614">
        <ele>8.31</ele>
        <time>2016-09-29T12:36:23Z</time>
      </trkpt>
      <trkpt lat="47.74718" lon="-3.19595">
        <ele>7.83</ele>
        <time>2016-09-29T12:36:38Z</time>
      </trkpt>
      <trkpt lat="47.74733" lon="-3.19578">
        <ele>6.87</ele>
        <time>2016-09-29T12:36:53Z</time>
      </trkpt>
      <trkpt lat="47.74752" lon="-3.19556">
        <ele>5.91</ele>
        <time>2016-09-29T12:37:12Z</time>
      </trkpt>
      <trkpt lat="47.74768" lon="-3.19538">
        <ele>4.94</ele>
        <time>2016-09-29T12:37:28Z</time>
      </trkpt>
      <trkpt lat="47.74783" lon="-3.19516">
        <ele>4.46</ele>
        <time>2016-09-29T12:37:43Z</time>
      </trkpt>
      <trkpt lat="47.74799" lon="-3.19499">
        <ele>3.98</ele>
        <time>2016-09-29T12:37:57Z</time>
      </trkpt>
      <trkpt lat="47.74811" lon="-3.19474">
        <ele>3.98</ele>
        <time>2016-09-29T12:38:13Z</time>
      </trkpt>
      <trkpt lat="47.74822" lon="-3.19449">
        <ele>3.98</ele>
        <time>2016-09-29T12:38:29Z</time>
      </trkpt>
      <trkpt lat="47.7483" lon="-3.19427">
        <ele>3.98</ele>
        <time>2016-09-29T12:38:43Z</time>
      </trkpt>
      <trkpt lat="47.74835" lon="-3.19417">
        <ele>3.98</ele>
        <time>2016-09-29T12:38:50Z</time>
      </trkpt>
      <trkpt lat="47.74837" lon="-3.19414">
        <ele>3.98</ele>
        <time>2016-09-29T12:38:53Z</time>
      </trkpt>
      <trkpt lat="47.74846" lon="-3.19391">
        <ele>3.98</ele>
        <time>2016-09-29T12:39:08Z</time>
      </trkpt>
      <trkpt lat="47.74848" lon="-3.19384">
        <ele>3.98</ele>
        <time>2016-09-29T12:39:13Z</time>
      </trkpt>
      <trkpt lat="47.74851" lon="-3.19357">
        <ele>4.94</ele>
        <time>2016-09-29T12:39:27Z</time>
      </trkpt>
      <trkpt lat="47.74856" lon="-3.19338">
        <ele>4.94</ele>
        <time>2016-09-29T12:39:42Z</time>
      </trkpt>
      <trkpt lat="47.74861" lon="-3.19323">
        <ele>4.94</ele>
        <time>2016-09-29T12:39:59Z</time>
      </trkpt>
      <trkpt lat="47.74861" lon="-3.19316">
        <ele>4.94</ele>
        <time>2016-09-29T12:40:04Z</time>
      </trkpt>
      <trkpt lat="47.74858" lon="-3.19313">
        <ele>3.5</ele>
        <time>2016-09-29T12:40:07Z</time>
      </trkpt>
      <trkpt lat="47.74854" lon="-3.19311">
        <ele>3.02</ele>
        <time>2016-09-29T12:40:13Z</time>
      </trkpt>
      <trkpt lat="47.7484" lon="-3.19317">
        <ele>2.54</ele>
        <time>2016-09-29T12:40:28Z</time>
      </trkpt>
      <trkpt lat="47.74822" lon="-3.1932">
        <ele>2.54</ele>
        <time>2016-09-29T12:40:44Z</time>
      </trkpt>
      <trkpt lat="47.74804" lon="-3.19318">
        <ele>2.06</ele>
        <time>2016-09-29T12:41:00Z</time>
      </trkpt>
      <trkpt lat="47.74787" lon="-3.19313">
        <ele>2.06</ele>
        <time>2016-09-29T12:41:14Z</time>
      </trkpt>
      <trkpt lat="47.74769" lon="-3.19305">
        <ele>1.58</ele>
        <time>2016-09-29T12:41:30Z</time>
      </trkpt>
      <trkpt lat="47.74752" lon="-3.19298">
        <ele>1.1</ele>
        <time>2016-09-29T12:41:44Z</time>
      </trkpt>
      <trkpt lat="47.74736" lon="-3.19291">
        <ele>1.1</ele>
        <time>2016-09-29T12:41:58Z</time>
      </trkpt>
      <trkpt lat="47.74718" lon="-3.19282">
        <ele>1.1</ele>
        <time>2016-09-29T12:42:13Z</time>
      </trkpt>
      <trkpt lat="47.747" lon="-3.19276">
        <ele>0.62</ele>
        <time>2016-09-29T12:42:27Z</time>
      </trkpt>
      <trkpt lat="47.74684" lon="-3.1927">
        <ele>0.62</ele>
        <time>2016-09-29T12:42:41Z</time>
      </trkpt>
      <trkpt lat="47.74679" lon="-3.19267">
        <ele>0.62</ele>
        <time>2016-09-29T12:42:45Z</time>
      </trkpt>
      <trkpt lat="47.74662" lon="-3.19261">
        <ele>0.62</ele>
        <time>2016-09-29T12:42:59Z</time>
      </trkpt>
      <trkpt lat="47.74646" lon="-3.1925">
        <ele>1.58</ele>
        <time>2016-09-29T12:43:13Z</time>
      </trkpt>
      <trkpt lat="47.74637" lon="-3.19245">
        <ele>1.58</ele>
        <time>2016-09-29T12:43:21Z</time>
      </trkpt>
      <trkpt lat="47.74625" lon="-3.19241">
        <ele>2.06</ele>
        <time>2016-09-29T12:43:36Z</time>
      </trkpt>
      <trkpt lat="47.74624" lon="-3.19248">
        <ele>3.02</ele>
        <time>2016-09-29T12:43:43Z</time>
      </trkpt>
      <trkpt lat="47.74625" lon="-3.19269">
        <ele>4.94</ele>
        <time>2016-09-29T12:43:57Z</time>
      </trkpt>
      <trkpt lat="47.74626" lon="-3.19281">
        <ele>6.87</ele>
        <time>2016-09-29T12:44:08Z</time>
      </trkpt>
      <trkpt lat="47.74628" lon="-3.19297">
        <ele>8.79</ele>
        <time>2016-09-29T12:44:24Z</time>
      </trkpt>
      <trkpt lat="47.74629" lon="-3.19318">
        <ele>11.19</ele>
        <time>2016-09-29T12:44:40Z</time>
      </trkpt>
      <trkpt lat="47.7463" lon="-3.19332">
        <ele>12.63</ele>
        <time>2016-09-29T12:44:54Z</time>
      </trkpt>
      <trkpt lat="47.74628" lon="-3.19341">
        <ele>13.12</ele>
        <time>2016-09-29T12:45:12Z</time>
      </trkpt>
      <trkpt lat="47.74627" lon="-3.19341">
        <ele>14.08</ele>
        <time>2016-09-29T12:45:28Z</time>
      </trkpt>
      <trkpt lat="47.74629" lon="-3.19343">
        <ele>13.12</ele>
        <time>2016-09-29T12:45:56Z</time>
      </trkpt>
      <trkpt lat="47.74629" lon="-3.19341">
        <ele>14.08</ele>
        <time>2016-09-29T12:46:12Z</time>
      </trkpt>
      <trkpt lat="47.74628" lon="-3.19343">
        <ele>12.63</ele>
        <time>2016-09-29T12:46:28Z</time>
      </trkpt>
      <trkpt lat="47.74627" lon="-3.19342">
        <ele>14.08</ele>
        <time>2016-09-29T12:46:31Z</time>
      </trkpt>
      <trkpt lat="47.74628" lon="-3.19339">
        <ele>13.12</ele>
        <time>2016-09-29T12:46:40Z</time>
      </trkpt>
      <trkpt lat="47.74629" lon="-3.19339">
        <ele>14.56</ele>
        <time>2016-09-29T12:46:42Z</time>
      </trkpt>
      <trkpt lat="47.74628" lon="-3.1934">
        <ele>13.6</ele>
        <time>2016-09-29T12:46:49Z</time>
      </trkpt>
      <trkpt lat="47.74627" lon="-3.19339">
        <ele>13.6</ele>
        <time>2016-09-29T12:47:13Z</time>
      </trkpt>
      <trkpt lat="47.74625" lon="-3.1934">
        <ele>13.12</ele>
        <time>2016-09-29T12:47:55Z</time>
      </trkpt>
      <trkpt lat="47.74623" lon="-3.1934">
        <ele>13.12</ele>
        <time>2016-09-29T12:48:30Z</time>
      </trkpt>
      <trkpt lat="47.74628" lon="-3.19342">
        <ele>13.12</ele>
        <time>2016-09-29T12:49:04Z</time>
      </trkpt>
      <trkpt lat="47.74627" lon="-3.19342">
        <ele>13.12</ele>
        <time>2016-09-29T12:49:31Z</time>
      </trkpt>
      <trkpt lat="47.74631" lon="-3.19344">
        <ele>13.12</ele>
        <time>2016-09-29T12:49:52Z</time>
      </trkpt>
      <trkpt lat="47.74627" lon="-3.19343">
        <ele>13.12</ele>
        <time>2016-09-29T12:50:14Z</time>
      </trkpt>
      <trkpt lat="47.74625" lon="-3.19348">
        <ele>14.08</ele>
        <time>2016-09-29T12:50:34Z</time>
      </trkpt>
      <trkpt lat="47.74607" lon="-3.19356">
        <ele>14.56</ele>
        <time>2016-09-29T12:50:53Z</time>
      </trkpt>
      <trkpt lat="47.74606" lon="-3.19357">
        <ele>14.56</ele>
        <time>2016-09-29T12:50:55Z</time>
      </trkpt>
      <trkpt lat="47.74601" lon="-3.19361">
        <ele>13.12</ele>
        <time>2016-09-29T12:51:00Z</time>
      </trkpt>
      <trkpt lat="47.74588" lon="-3.19365">
        <ele>13.6</ele>
        <time>2016-09-29T12:51:15Z</time>
      </trkpt>
      <trkpt lat="47.74571" lon="-3.19365">
        <ele>12.63</ele>
        <time>2016-09-29T12:51:31Z</time>
      </trkpt>
      <trkpt lat="47.74564" lon="-3.19361">
        <ele>12.63</ele>
        <time>2016-09-29T12:51:47Z</time>
      </trkpt>
      <trkpt lat="47.74556" lon="-3.19354">
        <ele>12.63</ele>
        <time>2016-09-29T12:52:06Z</time>
      </trkpt>
      <trkpt lat="47.74545" lon="-3.19358">
        <ele>12.63</ele>
        <time>2016-09-29T12:52:19Z</time>
      </trkpt>
      <trkpt lat="47.74534" lon="-3.19354">
        <ele>12.15</ele>
        <time>2016-09-29T12:52:32Z</time>
      </trkpt>
      <trkpt lat="47.74532" lon="-3.19354">
        <ele>12.15</ele>
        <time>2016-09-29T12:52:34Z</time>
      </trkpt>
      <trkpt lat="47.74528" lon="-3.19351">
        <ele>13.6</ele>
        <time>2016-09-29T12:52:38Z</time>
      </trkpt>
      <trkpt lat="47.74515" lon="-3.19345">
        <ele>13.6</ele>
        <time>2016-09-29T12:52:52Z</time>
      </trkpt>
      <trkpt lat="47.74514" lon="-3.19346">
        <ele>13.6</ele>
        <time>2016-09-29T12:52:53Z</time>
      </trkpt>
      <trkpt lat="47.74505" lon="-3.19351">
        <ele>13.6</ele>
        <time>2016-09-29T12:53:02Z</time>
      </trkpt>
      <trkpt lat="47.74486" lon="-3.19363">
        <ele>14.56</ele>
        <time>2016-09-29T12:53:22Z</time>
      </trkpt>
      <trkpt lat="47.74471" lon="-3.19366">
        <ele>14.56</ele>
        <time>2016-09-29T12:53:36Z</time>
      </trkpt>
      <trkpt lat="47.74447" lon="-3.19369">
        <ele>15.04</ele>
        <time>2016-09-29T12:53:56Z</time>
      </trkpt>
      <trkpt lat="47.74424" lon="-3.19375">
        <ele>15.52</ele>
        <time>2016-09-29T12:54:16Z</time>
      </trkpt>
      <trkpt lat="47.74401" lon="-3.19377">
        <ele>16</ele>
        <time>2016-09-29T12:54:34Z</time>
      </trkpt>
      <trkpt lat="47.74389" lon="-3.19379">
        <ele>16</ele>
        <time>2016-09-29T12:54:40Z</time>
      </trkpt>
      <trkpt lat="47.74361" lon="-3.19381">
        <ele>16</ele>
        <time>2016-09-29T12:54:58Z</time>
      </trkpt>
      <trkpt lat="47.74338" lon="-3.1939">
        <ele>16</ele>
        <time>2016-09-29T12:55:14Z</time>
      </trkpt>
      <trkpt lat="47.74313" lon="-3.1939">
        <ele>16.48</ele>
        <time>2016-09-29T12:55:32Z</time>
      </trkpt>
      <trkpt lat="47.74292" lon="-3.1939">
        <ele>16.48</ele>
        <time>2016-09-29T12:55:50Z</time>
      </trkpt>
      <trkpt lat="47.74274" lon="-3.19391">
        <ele>16.48</ele>
        <time>2016-09-29T12:56:05Z</time>
      </trkpt>
      <trkpt lat="47.74251" lon="-3.19391">
        <ele>16.48</ele>
        <time>2016-09-29T12:56:22Z</time>
      </trkpt>
      <trkpt lat="47.74231" lon="-3.19394">
        <ele>17.44</ele>
        <time>2016-09-29T12:56:37Z</time>
      </trkpt>
      <trkpt lat="47.74212" lon="-3.19395">
        <ele>17.44</ele>
        <time>2016-09-29T12:56:51Z</time>
      </trkpt>
      <trkpt lat="47.74189" lon="-3.19396">
        <ele>17.92</ele>
        <time>2016-09-29T12:57:08Z</time>
      </trkpt>
      <trkpt lat="47.74168" lon="-3.19399">
        <ele>18.4</ele>
        <time>2016-09-29T12:57:24Z</time>
      </trkpt>
      <trkpt lat="47.74149" lon="-3.19402">
        <ele>18.88</ele>
        <time>2016-09-29T12:57:39Z</time>
      </trkpt>
      <trkpt lat="47.74132" lon="-3.19404">
        <ele>18.88</ele>
        <time>2016-09-29T12:57:55Z</time>
      </trkpt>
      <trkpt lat="47.74108" lon="-3.19406">
        <ele>18.88</ele>
        <time>2016-09-29T12:58:15Z</time>
      </trkpt>
      <trkpt lat="47.7409" lon="-3.19406">
        <ele>17.44</ele>
        <time>2016-09-29T12:58:28Z</time>
      </trkpt>
      <trkpt lat="47.74065" lon="-3.19412">
        <ele>16.48</ele>
        <time>2016-09-29T12:58:45Z</time>
      </trkpt>
      <trkpt lat="47.74041" lon="-3.19414">
        <ele>16</ele>
        <time>2016-09-29T12:59:03Z</time>
      </trkpt>
      <trkpt lat="47.74023" lon="-3.19414">
        <ele>15.52</ele>
        <time>2016-09-29T12:59:17Z</time>
      </trkpt>
      <trkpt lat="47.74003" lon="-3.19416">
        <ele>15.04</ele>
        <time>2016-09-29T12:59:32Z</time>
      </trkpt>
      <trkpt lat="47.73986" lon="-3.19419">
        <ele>14.08</ele>
        <time>2016-09-29T12:59:46Z</time>
      </trkpt>
      <trkpt lat="47.73966" lon="-3.19421">
        <ele>13.12</ele>
        <time>2016-09-29T13:00:02Z</time>
      </trkpt>
      <trkpt lat="47.73947" lon="-3.19423">
        <ele>11.19</ele>
        <time>2016-09-29T13:00:17Z</time>
      </trkpt>
      <trkpt lat="47.73927" lon="-3.1943">
        <ele>9.75</ele>
        <time>2016-09-29T13:00:34Z</time>
      </trkpt>
      <trkpt lat="47.73904" lon="-3.19443">
        <ele>7.83</ele>
        <time>2016-09-29T13:00:52Z</time>
      </trkpt>
      <trkpt lat="47.73886" lon="-3.19459">
        <ele>7.35</ele>
        <time>2016-09-29T13:01:09Z</time>
      </trkpt>
      <trkpt lat="47.7388" lon="-3.19467">
        <ele>6.87</ele>
        <time>2016-09-29T13:01:16Z</time>
      </trkpt>
      <trkpt lat="47.73874" lon="-3.19499">
        <ele>6.87</ele>
        <time>2016-09-29T13:01:34Z</time>
      </trkpt>
      <trkpt lat="47.73866" lon="-3.19528">
        <ele>6.87</ele>
        <time>2016-09-29T13:01:51Z</time>
      </trkpt>
      <trkpt lat="47.7386" lon="-3.19554">
        <ele>6.87</ele>
        <time>2016-09-29T13:02:05Z</time>
      </trkpt>
      <trkpt lat="47.73851" lon="-3.1958">
        <ele>5.42</ele>
        <time>2016-09-29T13:02:23Z</time>
      </trkpt>
      <trkpt lat="47.73844" lon="-3.19602">
        <ele>4.94</ele>
        <time>2016-09-29T13:02:37Z</time>
      </trkpt>
      <trkpt lat="47.73842" lon="-3.19607">
        <ele>4.94</ele>
        <time>2016-09-29T13:02:53Z</time>
      </trkpt>
      <trkpt lat="47.7384" lon="-3.1961">
        <ele>5.42</ele>
        <time>2016-09-29T13:03:23Z</time>
      </trkpt>
      <trkpt lat="47.73841" lon="-3.1962">
        <ele>5.42</ele>
        <time>2016-09-29T13:03:44Z</time>
      </trkpt>
      <trkpt lat="47.7385" lon="-3.19634">
        <ele>5.42</ele>
        <time>2016-09-29T13:04:01Z</time>
      </trkpt>
      <trkpt lat="47.73853" lon="-3.19638">
        <ele>5.42</ele>
        <time>2016-09-29T13:04:05Z</time>
      </trkpt>
      <trkpt lat="47.7387" lon="-3.19651">
        <ele>5.42</ele>
        <time>2016-09-29T13:04:20Z</time>
      </trkpt>
      <trkpt lat="47.73872" lon="-3.19653">
        <ele>6.39</ele>
        <time>2016-09-29T13:04:23Z</time>
      </trkpt>
      <trkpt lat="47.73883" lon="-3.19662">
        <ele>6.39</ele>
        <time>2016-09-29T13:04:35Z</time>
      </trkpt>
      <trkpt lat="47.73889" lon="-3.19666">
        <ele>6.39</ele>
        <time>2016-09-29T13:04:51Z</time>
      </trkpt>
      <trkpt lat="47.73906" lon="-3.19678">
        <ele>7.83</ele>
        <time>2016-09-29T13:05:07Z</time>
      </trkpt>
      <trkpt lat="47.73923" lon="-3.19691">
        <ele>7.83</ele>
        <time>2016-09-29T13:05:24Z</time>
      </trkpt>
      <trkpt lat="47.73937" lon="-3.19702">
        <ele>9.27</ele>
        <time>2016-09-29T13:05:38Z</time>
      </trkpt>
      <trkpt lat="47.73951" lon="-3.19714">
        <ele>10.23</ele>
        <time>2016-09-29T13:05:53Z</time>
      </trkpt>
      <trkpt lat="47.73963" lon="-3.19727">
        <ele>10.71</ele>
        <time>2016-09-29T13:06:07Z</time>
      </trkpt>
      <trkpt lat="47.7397" lon="-3.19751">
        <ele>11.67</ele>
        <time>2016-09-29T13:06:25Z</time>
      </trkpt>
      <trkpt lat="47.73974" lon="-3.19776">
        <ele>13.6</ele>
        <time>2016-09-29T13:06:41Z</time>
      </trkpt>
      <trkpt lat="47.73975" lon="-3.19779">
        <ele>13.6</ele>
        <time>2016-09-29T13:06:43Z</time>
      </trkpt>
      <trkpt lat="47.73974" lon="-3.19789">
        <ele>14.56</ele>
        <time>2016-09-29T13:06:49Z</time>
      </trkpt>
      <trkpt lat="47.73978" lon="-3.1981">
        <ele>15.04</ele>
        <time>2016-09-29T13:07:03Z</time>
      </trkpt>
      <trkpt lat="47.7398" lon="-3.19835">
        <ele>16.48</ele>
        <time>2016-09-29T13:07:18Z</time>
      </trkpt>
      <trkpt lat="47.73983" lon="-3.19867">
        <ele>17.92</ele>
        <time>2016-09-29T13:07:37Z</time>
      </trkpt>
      <trkpt lat="47.7399" lon="-3.19898">
        <ele>19.36</ele>
        <time>2016-09-29T13:07:56Z</time>
      </trkpt>
      <trkpt lat="47.73996" lon="-3.19926">
        <ele>19.84</ele>
        <time>2016-09-29T13:08:15Z</time>
      </trkpt>
      <trkpt lat="47.74002" lon="-3.19946">
        <ele>18.4</ele>
        <time>2016-09-29T13:08:28Z</time>
      </trkpt>
      <trkpt lat="47.74008" lon="-3.19975">
        <ele>17.92</ele>
        <time>2016-09-29T13:08:45Z</time>
      </trkpt>
      <trkpt lat="47.74019" lon="-3.20014">
        <ele>16</ele>
        <time>2016-09-29T13:09:05Z</time>
      </trkpt>
      <trkpt lat="47.74034" lon="-3.20044">
        <ele>13.6</ele>
        <time>2016-09-29T13:09:26Z</time>
      </trkpt>
      <trkpt lat="47.7404" lon="-3.20049">
        <ele>13.12</ele>
        <time>2016-09-29T13:09:31Z</time>
      </trkpt>
      <trkpt lat="47.74063" lon="-3.20063">
        <ele>11.19</ele>
        <time>2016-09-29T13:09:52Z</time>
      </trkpt>
      <trkpt lat="47.74087" lon="-3.20075">
        <ele>9.75</ele>
        <time>2016-09-29T13:10:12Z</time>
      </trkpt>
      <trkpt lat="47.74109" lon="-3.20075">
        <ele>9.27</ele>
        <time>2016-09-29T13:10:30Z</time>
      </trkpt>
      <trkpt lat="47.74129" lon="-3.2007">
        <ele>9.27</ele>
        <time>2016-09-29T13:10:46Z</time>
      </trkpt>
      <trkpt lat="47.74147" lon="-3.20059">
        <ele>9.27</ele>
        <time>2016-09-29T13:11:02Z</time>
      </trkpt>
      <trkpt lat="47.74168" lon="-3.20048">
        <ele>8.79</ele>
        <time>2016-09-29T13:11:20Z</time>
      </trkpt>
      <trkpt lat="47.74193" lon="-3.20041">
        <ele>9.27</ele>
        <time>2016-09-29T13:11:39Z</time>
      </trkpt>
      <trkpt lat="47.74212" lon="-3.20033">
        <ele>9.27</ele>
        <time>2016-09-29T13:11:55Z</time>
      </trkpt>
      <trkpt lat="47.74231" lon="-3.20023">
        <ele>8.31</ele>
        <time>2016-09-29T13:12:11Z</time>
      </trkpt>
      <trkpt lat="47.7425" lon="-3.20015">
        <ele>7.35</ele>
        <time>2016-09-29T13:12:28Z</time>
      </trkpt>
      <trkpt lat="47.74253" lon="-3.20014">
        <ele>7.35</ele>
        <time>2016-09-29T13:12:31Z</time>
      </trkpt>
      <trkpt lat="47.74277" lon="-3.19999">
        <ele>5.91</ele>
        <time>2016-09-29T13:12:50Z</time>
      </trkpt>
      <trkpt lat="47.74295" lon="-3.19993">
        <ele>4.46</ele>
        <time>2016-09-29T13:13:05Z</time>
      </trkpt>
      <trkpt lat="47.74316" lon="-3.19997">
        <ele>3.02</ele>
        <time>2016-09-29T13:13:22Z</time>
      </trkpt>
      <trkpt lat="47.74335" lon="-3.20014">
        <ele>2.54</ele>
        <time>2016-09-29T13:13:41Z</time>
      </trkpt>
      <trkpt lat="47.7434" lon="-3.20021">
        <ele>1.58</ele>
        <time>2016-09-29T13:13:46Z</time>
      </trkpt>
      <trkpt lat="47.74357" lon="-3.20046">
        <ele>1.58</ele>
        <time>2016-09-29T13:14:05Z</time>
      </trkpt>
      <trkpt lat="47.74367" lon="-3.20065">
        <ele>1.58</ele>
        <time>2016-09-29T13:14:20Z</time>
      </trkpt>
      <trkpt lat="47.74375" lon="-3.20079">
        <ele>1.58</ele>
        <time>2016-09-29T13:14:32Z</time>
      </trkpt>
      <trkpt lat="47.74383" lon="-3.20108">
        <ele>3.02</ele>
        <time>2016-09-29T13:14:51Z</time>
      </trkpt>
      <trkpt lat="47.7439" lon="-3.2014">
        <ele>3.02</ele>
        <time>2016-09-29T13:15:07Z</time>
      </trkpt>
      <trkpt lat="47.74392" lon="-3.20174">
        <ele>3.5</ele>
        <time>2016-09-29T13:15:25Z</time>
      </trkpt>
      <trkpt lat="47.7439" lon="-3.20183">
        <ele>3.5</ele>
        <time>2016-09-29T13:15:47Z</time>
      </trkpt>
      <trkpt lat="47.74389" lon="-3.20188">
        <ele>3.5</ele>
        <time>2016-09-29T13:16:14Z</time>
      </trkpt>
      <trkpt lat="47.74383" lon="-3.20199">
        <ele>3.5</ele>
        <time>2016-09-29T13:16:32Z</time>
      </trkpt>
      <trkpt lat="47.74374" lon="-3.20218">
        <ele>3.5</ele>
        <time>2016-09-29T13:16:48Z</time>
      </trkpt>
      <trkpt lat="47.74362" lon="-3.20241">
        <ele>3.98</ele>
        <time>2016-09-29T13:17:07Z</time>
      </trkpt>
      <trkpt lat="47.74351" lon="-3.2026">
        <ele>3.98</ele>
        <time>2016-09-29T13:17:21Z</time>
      </trkpt>
      <trkpt lat="47.74341" lon="-3.20281">
        <ele>3.98</ele>
        <time>2016-09-29T13:17:37Z</time>
      </trkpt>
      <trkpt lat="47.74331" lon="-3.20306">
        <ele>3.98</ele>
        <time>2016-09-29T13:17:57Z</time>
      </trkpt>
      <trkpt lat="47.74311" lon="-3.20334">
        <ele>3.98</ele>
        <time>2016-09-29T13:18:18Z</time>
      </trkpt>
      <trkpt lat="47.743" lon="-3.20359">
        <ele>3.98</ele>
        <time>2016-09-29T13:18:36Z</time>
      </trkpt>
      <trkpt lat="47.74286" lon="-3.2039">
        <ele>3.98</ele>
        <time>2016-09-29T13:18:55Z</time>
      </trkpt>
      <trkpt lat="47.7427" lon="-3.20416">
        <ele>3.5</ele>
        <time>2016-09-29T13:19:14Z</time>
      </trkpt>
      <trkpt lat="47.74254" lon="-3.20433">
        <ele>3.5</ele>
        <time>2016-09-29T13:19:27Z</time>
      </trkpt>
      <trkpt lat="47.74253" lon="-3.20434">
        <ele>3.5</ele>
        <time>2016-09-29T13:19:28Z</time>
      </trkpt>
      <trkpt lat="47.74234" lon="-3.20444">
        <ele>3.98</ele>
        <time>2016-09-29T13:19:42Z</time>
      </trkpt>
      <trkpt lat="47.74213" lon="-3.20454">
        <ele>3.98</ele>
        <time>2016-09-29T13:19:59Z</time>
      </trkpt>
      <trkpt lat="47.74201" lon="-3.20462">
        <ele>3.5</ele>
        <time>2016-09-29T13:20:10Z</time>
      </trkpt>
      <trkpt lat="47.74194" lon="-3.20466">
        <ele>3.5</ele>
        <time>2016-09-29T13:20:16Z</time>
      </trkpt>
      <trkpt lat="47.74175" lon="-3.2048">
        <ele>4.94</ele>
        <time>2016-09-29T13:20:32Z</time>
      </trkpt>
      <trkpt lat="47.7417" lon="-3.20483">
        <ele>4.94</ele>
        <time>2016-09-29T13:20:37Z</time>
      </trkpt>
      <trkpt lat="47.74151" lon="-3.20496">
        <ele>4.94</ele>
        <time>2016-09-29T13:20:53Z</time>
      </trkpt>
      <trkpt lat="47.74136" lon="-3.20506">
        <ele>5.91</ele>
        <time>2016-09-29T13:21:07Z</time>
      </trkpt>
      <trkpt lat="47.74121" lon="-3.20518">
        <ele>6.39</ele>
        <time>2016-09-29T13:21:21Z</time>
      </trkpt>
      <trkpt lat="47.74105" lon="-3.20529">
        <ele>7.35</ele>
        <time>2016-09-29T13:21:35Z</time>
      </trkpt>
      <trkpt lat="47.74089" lon="-3.20539">
        <ele>7.83</ele>
        <time>2016-09-29T13:21:50Z</time>
      </trkpt>
      <trkpt lat="47.74076" lon="-3.20548">
        <ele>8.31</ele>
        <time>2016-09-29T13:22:04Z</time>
      </trkpt>
      <trkpt lat="47.74062" lon="-3.20557">
        <ele>9.27</ele>
        <time>2016-09-29T13:22:18Z</time>
      </trkpt>
      <trkpt lat="47.74047" lon="-3.20565">
        <ele>9.75</ele>
        <time>2016-09-29T13:22:32Z</time>
      </trkpt>
      <trkpt lat="47.74035" lon="-3.20578">
        <ele>10.23</ele>
        <time>2016-09-29T13:22:45Z</time>
      </trkpt>
      <trkpt lat="47.74027" lon="-3.20594">
        <ele>10.23</ele>
        <time>2016-09-29T13:22:59Z</time>
      </trkpt>
      <trkpt lat="47.74021" lon="-3.2062">
        <ele>10.23</ele>
        <time>2016-09-29T13:23:14Z</time>
      </trkpt>
      <trkpt lat="47.74017" lon="-3.20635">
        <ele>8.31</ele>
        <time>2016-09-29T13:23:23Z</time>
      </trkpt>
      <trkpt lat="47.74013" lon="-3.20654">
        <ele>8.79</ele>
        <time>2016-09-29T13:23:34Z</time>
      </trkpt>
      <trkpt lat="47.74007" lon="-3.20679">
        <ele>7.83</ele>
        <time>2016-09-29T13:23:49Z</time>
      </trkpt>
      <trkpt lat="47.74" lon="-3.20707">
        <ele>7.83</ele>
        <time>2016-09-29T13:24:05Z</time>
      </trkpt>
      <trkpt lat="47.73995" lon="-3.20732">
        <ele>7.83</ele>
        <time>2016-09-29T13:24:19Z</time>
      </trkpt>
      <trkpt lat="47.73992" lon="-3.2075">
        <ele>7.83</ele>
        <time>2016-09-29T13:24:29Z</time>
      </trkpt>
      <trkpt lat="47.73993" lon="-3.20767">
        <ele>7.83</ele>
        <time>2016-09-29T13:24:41Z</time>
      </trkpt>
      <trkpt lat="47.74011" lon="-3.2078">
        <ele>9.27</ele>
        <time>2016-09-29T13:24:59Z</time>
      </trkpt>
      <trkpt lat="47.74031" lon="-3.20787">
        <ele>9.27</ele>
        <time>2016-09-29T13:25:16Z</time>
      </trkpt>
      <trkpt lat="47.74052" lon="-3.20793">
        <ele>8.79</ele>
        <time>2016-09-29T13:25:32Z</time>
      </trkpt>
      <trkpt lat="47.7406" lon="-3.20797">
        <ele>8.79</ele>
        <time>2016-09-29T13:25:39Z</time>
      </trkpt>
      <trkpt lat="47.74071" lon="-3.20801">
        <ele>8.79</ele>
        <time>2016-09-29T13:25:48Z</time>
      </trkpt>
      <trkpt lat="47.74092" lon="-3.20806">
        <ele>9.27</ele>
        <time>2016-09-29T13:26:05Z</time>
      </trkpt>
      <trkpt lat="47.74109" lon="-3.20812">
        <ele>9.27</ele>
        <time>2016-09-29T13:26:20Z</time>
      </trkpt>
      <trkpt lat="47.74128" lon="-3.20821">
        <ele>9.27</ele>
        <time>2016-09-29T13:26:37Z</time>
      </trkpt>
      <trkpt lat="47.74138" lon="-3.20828">
        <ele>9.27</ele>
        <time>2016-09-29T13:26:46Z</time>
      </trkpt>
      <trkpt lat="47.74148" lon="-3.20849">
        <ele>9.75</ele>
        <time>2016-09-29T13:27:02Z</time>
      </trkpt>
      <trkpt lat="47.74155" lon="-3.20872">
        <ele>10.23</ele>
        <time>2016-09-29T13:27:19Z</time>
      </trkpt>
      <trkpt lat="47.7416" lon="-3.20885">
        <ele>8.79</ele>
        <time>2016-09-29T13:27:29Z</time>
      </trkpt>
      <trkpt lat="47.74165" lon="-3.20914">
        <ele>8.79</ele>
        <time>2016-09-29T13:27:47Z</time>
      </trkpt>
      <trkpt lat="47.74168" lon="-3.20939">
        <ele>8.79</ele>
        <time>2016-09-29T13:28:02Z</time>
      </trkpt>
      <trkpt lat="47.7417" lon="-3.20969">
        <ele>9.75</ele>
        <time>2016-09-29T13:28:20Z</time>
      </trkpt>
      <trkpt lat="47.74172" lon="-3.20993">
        <ele>9.75</ele>
        <time>2016-09-29T13:28:35Z</time>
      </trkpt>
      <trkpt lat="47.74178" lon="-3.21018">
        <ele>9.75</ele>
        <time>2016-09-29T13:28:50Z</time>
      </trkpt>
      <trkpt lat="47.7418" lon="-3.2104">
        <ele>9.75</ele>
        <time>2016-09-29T13:29:04Z</time>
      </trkpt>
      <trkpt lat="47.74182" lon="-3.21061">
        <ele>9.75</ele>
        <time>2016-09-29T13:29:18Z</time>
      </trkpt>
      <trkpt lat="47.74186" lon="-3.21085">
        <ele>9.75</ele>
        <time>2016-09-29T13:29:33Z</time>
      </trkpt>
      <trkpt lat="47.74192" lon="-3.21098">
        <ele>9.75</ele>
        <time>2016-09-29T13:29:48Z</time>
      </trkpt>
      <trkpt lat="47.74191" lon="-3.21102">
        <ele>11.19</ele>
        <time>2016-09-29T13:29:54Z</time>
      </trkpt>
      <trkpt lat="47.74193" lon="-3.21107">
        <ele>10.23</ele>
        <time>2016-09-29T13:30:10Z</time>
      </trkpt>
      <trkpt lat="47.74196" lon="-3.21112">
        <ele>10.23</ele>
        <time>2016-09-29T13:30:21Z</time>
      </trkpt>
      <trkpt lat="47.74198" lon="-3.21128">
        <ele>11.19</ele>
        <time>2016-09-29T13:30:39Z</time>
      </trkpt>
      <trkpt lat="47.74196" lon="-3.21153">
        <ele>11.67</ele>
        <time>2016-09-29T13:30:55Z</time>
      </trkpt>
      <trkpt lat="47.74183" lon="-3.21176">
        <ele>11.67</ele>
        <time>2016-09-29T13:31:11Z</time>
      </trkpt>
      <trkpt lat="47.74171" lon="-3.21193">
        <ele>11.67</ele>
        <time>2016-09-29T13:31:25Z</time>
      </trkpt>
      <trkpt lat="47.74161" lon="-3.21207">
        <ele>11.67</ele>
        <time>2016-09-29T13:31:39Z</time>
      </trkpt>
      <trkpt lat="47.74148" lon="-3.21222">
        <ele>12.15</ele>
        <time>2016-09-29T13:31:53Z</time>
      </trkpt>
      <trkpt lat="47.74133" lon="-3.21242">
        <ele>12.15</ele>
        <time>2016-09-29T13:32:10Z</time>
      </trkpt>
      <trkpt lat="47.74119" lon="-3.21258">
        <ele>12.15</ele>
        <time>2016-09-29T13:32:25Z</time>
      </trkpt>
      <trkpt lat="47.74105" lon="-3.21278">
        <ele>12.15</ele>
        <time>2016-09-29T13:32:41Z</time>
      </trkpt>
      <trkpt lat="47.741" lon="-3.21283">
        <ele>10.71</ele>
        <time>2016-09-29T13:32:47Z</time>
      </trkpt>
      <trkpt lat="47.74089" lon="-3.213">
        <ele>12.15</ele>
        <time>2016-09-29T13:33:01Z</time>
      </trkpt>
      <trkpt lat="47.74073" lon="-3.21318">
        <ele>11.67</ele>
        <time>2016-09-29T13:33:17Z</time>
      </trkpt>
      <trkpt lat="47.74064" lon="-3.21332">
        <ele>10.71</ele>
        <time>2016-09-29T13:33:28Z</time>
      </trkpt>
      <trkpt lat="47.74046" lon="-3.21352">
        <ele>10.23</ele>
        <time>2016-09-29T13:33:46Z</time>
      </trkpt>
      <trkpt lat="47.7403" lon="-3.21375">
        <ele>10.71</ele>
        <time>2016-09-29T13:34:04Z</time>
      </trkpt>
      <trkpt lat="47.74012" lon="-3.21399">
        <ele>10.23</ele>
        <time>2016-09-29T13:34:21Z</time>
      </trkpt>
      <trkpt lat="47.73996" lon="-3.21422">
        <ele>10.71</ele>
        <time>2016-09-29T13:34:38Z</time>
      </trkpt>
      <trkpt lat="47.73994" lon="-3.21426">
        <ele>10.71</ele>
        <time>2016-09-29T13:34:40Z</time>
      </trkpt>
      <trkpt lat="47.73976" lon="-3.21449">
        <ele>9.75</ele>
        <time>2016-09-29T13:34:58Z</time>
      </trkpt>
      <trkpt lat="47.73959" lon="-3.2147">
        <ele>9.75</ele>
        <time>2016-09-29T13:35:16Z</time>
      </trkpt>
      <trkpt lat="47.73943" lon="-3.2149">
        <ele>9.75</ele>
        <time>2016-09-29T13:35:33Z</time>
      </trkpt>
      <trkpt lat="47.73924" lon="-3.21516">
        <ele>9.27</ele>
        <time>2016-09-29T13:35:53Z</time>
      </trkpt>
      <trkpt lat="47.73909" lon="-3.21536">
        <ele>9.27</ele>
        <time>2016-09-29T13:36:09Z</time>
      </trkpt>
      <trkpt lat="47.73894" lon="-3.21558">
        <ele>8.79</ele>
        <time>2016-09-29T13:36:26Z</time>
      </trkpt>
      <trkpt lat="47.73877" lon="-3.2158">
        <ele>8.79</ele>
        <time>2016-09-29T13:36:43Z</time>
      </trkpt>
      <trkpt lat="47.73859" lon="-3.21598">
        <ele>8.79</ele>
        <time>2016-09-29T13:37:00Z</time>
      </trkpt>
      <trkpt lat="47.73842" lon="-3.2162">
        <ele>8.79</ele>
        <time>2016-09-29T13:37:17Z</time>
      </trkpt>
      <trkpt lat="47.73828" lon="-3.21637">
        <ele>8.79</ele>
        <time>2016-09-29T13:37:32Z</time>
      </trkpt>
      <trkpt lat="47.73813" lon="-3.21654">
        <ele>8.79</ele>
        <time>2016-09-29T13:37:47Z</time>
      </trkpt>
      <trkpt lat="47.738" lon="-3.21666">
        <ele>10.23</ele>
        <time>2016-09-29T13:37:59Z</time>
      </trkpt>
      <trkpt lat="47.73779" lon="-3.2168">
        <ele>10.23</ele>
        <time>2016-09-29T13:38:17Z</time>
      </trkpt>
      <trkpt lat="47.73753" lon="-3.21693">
        <ele>8.79</ele>
        <time>2016-09-29T13:38:37Z</time>
      </trkpt>
      <trkpt lat="47.73735" lon="-3.21703">
        <ele>8.79</ele>
        <time>2016-09-29T13:38:53Z</time>
      </trkpt>
      <trkpt lat="47.73712" lon="-3.21716">
        <ele>8.31</ele>
        <time>2016-09-29T13:39:13Z</time>
      </trkpt>
      <trkpt lat="47.73691" lon="-3.21727">
        <ele>7.35</ele>
        <time>2016-09-29T13:39:29Z</time>
      </trkpt>
      <trkpt lat="47.73676" lon="-3.21735">
        <ele>7.35</ele>
        <time>2016-09-29T13:39:43Z</time>
      </trkpt>
      <trkpt lat="47.73662" lon="-3.21746">
        <ele>6.87</ele>
        <time>2016-09-29T13:39:57Z</time>
      </trkpt>
      <trkpt lat="47.73637" lon="-3.21752">
        <ele>5.91</ele>
        <time>2016-09-29T13:40:14Z</time>
      </trkpt>
      <trkpt lat="47.73631" lon="-3.21754">
        <ele>5.42</ele>
        <time>2016-09-29T13:40:19Z</time>
      </trkpt>
      <trkpt lat="47.73627" lon="-3.21765">
        <ele>4.94</ele>
        <time>2016-09-29T13:40:26Z</time>
      </trkpt>
      <trkpt lat="47.73632" lon="-3.21805">
        <ele>6.87</ele>
        <time>2016-09-29T13:40:48Z</time>
      </trkpt>
      <trkpt lat="47.73636" lon="-3.21822">
        <ele>5.42</ele>
        <time>2016-09-29T13:40:57Z</time>
      </trkpt>
      <trkpt lat="47.73641" lon="-3.21855">
        <ele>5.42</ele>
        <time>2016-09-29T13:41:14Z</time>
      </trkpt>
      <trkpt lat="47.73645" lon="-3.21875">
        <ele>4.94</ele>
        <time>2016-09-29T13:41:27Z</time>
      </trkpt>
      <trkpt lat="47.73652" lon="-3.21907">
        <ele>3.98</ele>
        <time>2016-09-29T13:41:45Z</time>
      </trkpt>
      <trkpt lat="47.73659" lon="-3.2194">
        <ele>3.5</ele>
        <time>2016-09-29T13:42:02Z</time>
      </trkpt>
      <trkpt lat="47.73666" lon="-3.21983">
        <ele>4.94</ele>
        <time>2016-09-29T13:42:24Z</time>
      </trkpt>
      <trkpt lat="47.73666" lon="-3.22014">
        <ele>5.91</ele>
        <time>2016-09-29T13:42:42Z</time>
      </trkpt>
      <trkpt lat="47.73666" lon="-3.22047">
        <ele>6.39</ele>
        <time>2016-09-29T13:42:59Z</time>
      </trkpt>
      <trkpt lat="47.73665" lon="-3.22077">
        <ele>6.87</ele>
        <time>2016-09-29T13:43:16Z</time>
      </trkpt>
      <trkpt lat="47.73664" lon="-3.22103">
        <ele>7.35</ele>
        <time>2016-09-29T13:43:31Z</time>
      </trkpt>
      <trkpt lat="47.73663" lon="-3.22111">
        <ele>7.35</ele>
        <time>2016-09-29T13:43:36Z</time>
      </trkpt>
      <trkpt lat="47.73665" lon="-3.22137">
        <ele>8.79</ele>
        <time>2016-09-29T13:43:50Z</time>
      </trkpt>
      <trkpt lat="47.73668" lon="-3.22175">
        <ele>10.23</ele>
        <time>2016-09-29T13:44:08Z</time>
      </trkpt>
      <trkpt lat="47.73666" lon="-3.22204">
        <ele>11.67</ele>
        <time>2016-09-29T13:44:25Z</time>
      </trkpt>
      <trkpt lat="47.73666" lon="-3.22232">
        <ele>13.12</ele>
        <time>2016-09-29T13:44:43Z</time>
      </trkpt>
      <trkpt lat="47.73667" lon="-3.22259">
        <ele>13.6</ele>
        <time>2016-09-29T13:44:59Z</time>
      </trkpt>
      <trkpt lat="47.73668" lon="-3.22286">
        <ele>14.08</ele>
        <time>2016-09-29T13:45:14Z</time>
      </trkpt>
      <trkpt lat="47.73669" lon="-3.22294">
        <ele>14.08</ele>
        <time>2016-09-29T13:45:18Z</time>
      </trkpt>
      <trkpt lat="47.73668" lon="-3.22322">
        <ele>14.56</ele>
        <time>2016-09-29T13:45:35Z</time>
      </trkpt>
      <trkpt lat="47.73665" lon="-3.22348">
        <ele>13.6</ele>
        <time>2016-09-29T13:45:50Z</time>
      </trkpt>
      <trkpt lat="47.73664" lon="-3.22375">
        <ele>13.12</ele>
        <time>2016-09-29T13:46:07Z</time>
      </trkpt>
      <trkpt lat="47.73664" lon="-3.22376">
        <ele>13.12</ele>
        <time>2016-09-29T13:46:08Z</time>
      </trkpt>
      <trkpt lat="47.73664" lon="-3.22399">
        <ele>12.63</ele>
        <time>2016-09-29T13:46:21Z</time>
      </trkpt>
      <trkpt lat="47.73667" lon="-3.22417">
        <ele>12.63</ele>
        <time>2016-09-29T13:46:31Z</time>
      </trkpt>
      <trkpt lat="47.73666" lon="-3.22453">
        <ele>12.15</ele>
        <time>2016-09-29T13:46:48Z</time>
      </trkpt>
      <trkpt lat="47.73667" lon="-3.22482">
        <ele>10.71</ele>
        <time>2016-09-29T13:47:05Z</time>
      </trkpt>
      <trkpt lat="47.73664" lon="-3.2251">
        <ele>10.71</ele>
        <time>2016-09-29T13:47:20Z</time>
      </trkpt>
      <trkpt lat="47.73663" lon="-3.2254">
        <ele>10.23</ele>
        <time>2016-09-29T13:47:37Z</time>
      </trkpt>
      <trkpt lat="47.73663" lon="-3.22565">
        <ele>9.27</ele>
        <time>2016-09-29T13:47:52Z</time>
      </trkpt>
      <trkpt lat="47.73666" lon="-3.22592">
        <ele>8.79</ele>
        <time>2016-09-29T13:48:08Z</time>
      </trkpt>
      <trkpt lat="47.73669" lon="-3.22607">
        <ele>8.31</ele>
        <time>2016-09-29T13:48:24Z</time>
      </trkpt>
      <trkpt lat="47.73675" lon="-3.2261">
        <ele>8.31</ele>
        <time>2016-09-29T13:48:39Z</time>
      </trkpt>
      <trkpt lat="47.73677" lon="-3.22608">
        <ele>7.83</ele>
        <time>2016-09-29T13:49:01Z</time>
      </trkpt>
      <trkpt lat="47.7368" lon="-3.22611">
        <ele>7.83</ele>
        <time>2016-09-29T13:49:27Z</time>
      </trkpt>
      <trkpt lat="47.7369" lon="-3.22604">
        <ele>7.83</ele>
        <time>2016-09-29T13:49:43Z</time>
      </trkpt>
      <trkpt lat="47.73692" lon="-3.22602">
        <ele>7.83</ele>
        <time>2016-09-29T13:49:47Z</time>
      </trkpt>
      <trkpt lat="47.737" lon="-3.22597">
        <ele>7.83</ele>
        <time>2016-09-29T13:49:54Z</time>
      </trkpt>
      <trkpt lat="47.73709" lon="-3.22598">
        <ele>7.83</ele>
        <time>2016-09-29T13:50:01Z</time>
      </trkpt>
      <trkpt lat="47.73718" lon="-3.22604">
        <ele>7.83</ele>
        <time>2016-09-29T13:50:14Z</time>
      </trkpt>
      <trkpt lat="47.73725" lon="-3.22615">
        <ele>7.83</ele>
        <time>2016-09-29T13:50:22Z</time>
      </trkpt>
      <trkpt lat="47.73742" lon="-3.22607">
        <ele>8.31</ele>
        <time>2016-09-29T13:50:38Z</time>
      </trkpt>
      <trkpt lat="47.73754" lon="-3.22602">
        <ele>8.31</ele>
        <time>2016-09-29T13:50:49Z</time>
      </trkpt>
      <trkpt lat="47.73769" lon="-3.22598">
        <ele>7.83</ele>
        <time>2016-09-29T13:51:03Z</time>
      </trkpt>
      <trkpt lat="47.73772" lon="-3.22612">
        <ele>7.83</ele>
        <time>2016-09-29T13:51:18Z</time>
      </trkpt>
      <trkpt lat="47.73775" lon="-3.22613">
        <ele>7.83</ele>
        <time>2016-09-29T13:51:31Z</time>
      </trkpt>
      <trkpt lat="47.7378" lon="-3.2262">
        <ele>7.83</ele>
        <time>2016-09-29T13:51:38Z</time>
      </trkpt>
      <trkpt lat="47.73789" lon="-3.22622">
        <ele>7.83</ele>
        <time>2016-09-29T13:51:46Z</time>
      </trkpt>
      <trkpt lat="47.73804" lon="-3.22604">
        <ele>7.35</ele>
        <time>2016-09-29T13:52:00Z</time>
      </trkpt>
      <trkpt lat="47.73826" lon="-3.2262">
        <ele>6.87</ele>
        <time>2016-09-29T13:52:17Z</time>
      </trkpt>
      <trkpt lat="47.7383" lon="-3.22629">
        <ele>6.87</ele>
        <time>2016-09-29T13:52:21Z</time>
      </trkpt>
      <trkpt lat="47.73835" lon="-3.22647">
        <ele>6.39</ele>
        <time>2016-09-29T13:52:32Z</time>
      </trkpt>
      <trkpt lat="47.73846" lon="-3.22673">
        <ele>6.87</ele>
        <time>2016-09-29T13:52:53Z</time>
      </trkpt>
      <trkpt lat="47.73869" lon="-3.22673">
        <ele>7.83</ele>
        <time>2016-09-29T13:53:11Z</time>
      </trkpt>
      <trkpt lat="47.73871" lon="-3.22675">
        <ele>7.83</ele>
        <time>2016-09-29T13:53:13Z</time>
      </trkpt>
      <trkpt lat="47.73875" lon="-3.2268">
        <ele>7.83</ele>
        <time>2016-09-29T13:53:17Z</time>
      </trkpt>
      <trkpt lat="47.73879" lon="-3.2271">
        <ele>9.27</ele>
        <time>2016-09-29T13:53:34Z</time>
      </trkpt>
      <trkpt lat="47.73873" lon="-3.22732">
        <ele>9.27</ele>
        <time>2016-09-29T13:53:48Z</time>
      </trkpt>
      <trkpt lat="47.73866" lon="-3.22757">
        <ele>9.27</ele>
        <time>2016-09-29T13:54:03Z</time>
      </trkpt>
      <trkpt lat="47.73862" lon="-3.22771">
        <ele>9.27</ele>
        <time>2016-09-29T13:54:18Z</time>
      </trkpt>
      <trkpt lat="47.73864" lon="-3.22771">
        <ele>9.27</ele>
        <time>2016-09-29T13:54:50Z</time>
      </trkpt>
      <trkpt lat="47.73866" lon="-3.22787">
        <ele>9.75</ele>
        <time>2016-09-29T13:55:04Z</time>
      </trkpt>
      <trkpt lat="47.73858" lon="-3.22805">
        <ele>9.75</ele>
        <time>2016-09-29T13:55:15Z</time>
      </trkpt>
      <trkpt lat="47.73851" lon="-3.22824">
        <ele>9.75</ele>
        <time>2016-09-29T13:55:28Z</time>
      </trkpt>
      <trkpt lat="47.7384" lon="-3.22862">
        <ele>10.71</ele>
        <time>2016-09-29T13:55:48Z</time>
      </trkpt>
      <trkpt lat="47.73832" lon="-3.22894">
        <ele>10.71</ele>
        <time>2016-09-29T13:56:06Z</time>
      </trkpt>
      <trkpt lat="47.73828" lon="-3.22916">
        <ele>11.19</ele>
        <time>2016-09-29T13:56:23Z</time>
      </trkpt>
      <trkpt lat="47.73828" lon="-3.22921">
        <ele>11.19</ele>
        <time>2016-09-29T13:56:46Z</time>
      </trkpt>
      <trkpt lat="47.73828" lon="-3.22924">
        <ele>11.19</ele>
        <time>2016-09-29T13:57:13Z</time>
      </trkpt>
      <trkpt lat="47.73829" lon="-3.22928">
        <ele>11.67</ele>
        <time>2016-09-29T13:57:22Z</time>
      </trkpt>
      <trkpt lat="47.73828" lon="-3.22953">
        <ele>12.15</ele>
        <time>2016-09-29T13:57:38Z</time>
      </trkpt>
      <trkpt lat="47.73821" lon="-3.22975">
        <ele>13.12</ele>
        <time>2016-09-29T13:57:49Z</time>
      </trkpt>
      <trkpt lat="47.73815" lon="-3.22993">
        <ele>11.19</ele>
        <time>2016-09-29T13:58:00Z</time>
      </trkpt>
      <trkpt lat="47.73802" lon="-3.23012">
        <ele>11.19</ele>
        <time>2016-09-29T13:58:17Z</time>
      </trkpt>
      <trkpt lat="47.73799" lon="-3.23014">
        <ele>11.19</ele>
        <time>2016-09-29T13:58:20Z</time>
      </trkpt>
      <trkpt lat="47.73792" lon="-3.23032">
        <ele>11.19</ele>
        <time>2016-09-29T13:58:31Z</time>
      </trkpt>
      <trkpt lat="47.73789" lon="-3.23042">
        <ele>11.19</ele>
        <time>2016-09-29T13:58:44Z</time>
      </trkpt>
      <trkpt lat="47.73793" lon="-3.23035">
        <ele>11.19</ele>
        <time>2016-09-29T13:59:03Z</time>
      </trkpt>
      <trkpt lat="47.73795" lon="-3.23032">
        <ele>11.19</ele>
        <time>2016-09-29T13:59:17Z</time>
      </trkpt>
      <trkpt lat="47.73793" lon="-3.23032">
        <ele>11.19</ele>
        <time>2016-09-29T13:59:35Z</time>
      </trkpt>
      <trkpt lat="47.73793" lon="-3.23032">
        <ele>12.63</ele>
        <time>2016-09-29T13:59:44Z</time>
      </trkpt>
    </trkseg>
  </trk>
</gpx>